createdAt,value
2022-10-11T00:01:25.906Z,25.94
2022-10-11T00:03:05.710Z,25.94
2022-10-11T00:04:45.447Z,25.88
2022-10-11T00:06:25.206Z,25.94
2022-10-11T00:08:05.004Z,25.94
2022-10-11T00:09:44.757Z,25.95
2022-10-11T00:11:24.556Z,25.94
2022-10-11T00:13:04.271Z,25.94
2022-10-11T00:14:44.037Z,25.94
2022-10-11T00:16:23.805Z,25.93
2022-10-11T00:18:03.571Z,25.94
2022-10-11T00:19:43.342Z,25.93
2022-10-11T00:21:23.123Z,25.93
2022-10-11T00:23:02.886Z,25.93
2022-10-11T00:24:42.648Z,25.93
2022-10-11T00:26:22.418Z,25.93
2022-10-11T00:28:02.191Z,25.93
2022-10-11T00:29:41.950Z,25.82
2022-10-11T00:31:21.722Z,25.93
2022-10-11T00:33:01.597Z,25.92
2022-10-11T00:34:41.248Z,25.92
2022-10-11T00:36:21.019Z,25.92
2022-10-11T00:38:00.821Z,25.92
2022-10-11T00:39:40.554Z,25.92
2022-10-11T00:41:20.348Z,25.92
2022-10-11T00:43:00.112Z,25.92
2022-10-11T00:44:39.849Z,25.91
2022-10-11T00:46:19.626Z,25.92
2022-10-11T00:47:59.390Z,25.91
2022-10-11T00:49:39.149Z,25.91
2022-10-11T00:51:18.921Z,25.91
2022-10-11T00:52:58.772Z,25.91
2022-10-11T00:54:38.469Z,25.81
2022-10-11T00:56:18.230Z,25.91
2022-10-11T00:59:37.781Z,25.91
2022-10-11T01:01:17.526Z,25.91
2022-10-11T01:02:57.334Z,25.9
2022-10-11T01:04:37.084Z,25.91
2022-10-11T01:06:16.840Z,25.9
2022-10-11T01:07:56.606Z,25.9
2022-10-11T01:09:36.364Z,25.9
2022-10-11T01:11:16.142Z,25.9
2022-10-11T01:12:55.889Z,25.9
2022-10-11T01:14:35.661Z,25.9
2022-10-11T01:16:15.448Z,25.9
2022-10-11T01:17:55.206Z,25.89
2022-10-11T01:19:34.964Z,25.8
2022-10-11T01:21:14.755Z,25.9
2022-10-11T01:22:54.506Z,25.89
2022-10-11T01:24:34.279Z,25.89
2022-10-11T01:26:14.039Z,25.89
2022-10-11T01:27:53.805Z,25.89
2022-10-11T01:29:33.581Z,25.88
2022-10-11T01:31:13.336Z,25.89
2022-10-11T01:32:53.112Z,25.88
2022-10-11T01:34:32.894Z,25.89
2022-10-11T01:36:12.709Z,25.88
2022-10-11T01:37:52.467Z,25.88
2022-10-11T01:39:32.244Z,25.88
2022-10-11T01:41:11.952Z,25.88
2022-10-11T01:42:51.739Z,25.87
2022-10-11T01:44:31.496Z,25.79
2022-10-11T01:46:11.277Z,25.87
2022-10-11T01:47:51.017Z,25.87
2022-10-11T01:49:30.780Z,25.87
2022-10-11T01:51:10.559Z,25.87
2022-10-11T01:52:50.329Z,25.87
2022-10-11T01:54:30.084Z,25.87
2022-10-11T01:56:09.848Z,25.86
2022-10-11T01:57:49.637Z,25.87
2022-10-11T01:59:29.393Z,25.87
2022-10-11T02:01:09.163Z,25.87
2022-10-11T02:02:48.911Z,25.86
2022-10-11T02:04:28.693Z,25.87
2022-10-11T02:06:08.464Z,25.86
2022-10-11T02:07:48.227Z,25.85
2022-10-11T02:09:28.002Z,25.86
2022-10-11T02:11:07.799Z,25.86
2022-10-11T02:12:47.534Z,25.86
2022-10-11T02:14:27.303Z,25.86
2022-10-11T02:16:07.065Z,25.85
2022-10-11T02:17:46.838Z,25.85
2022-10-11T02:21:06.370Z,25.85
2022-10-11T02:22:46.139Z,25.85
2022-10-11T02:24:25.900Z,25.85
2022-10-11T02:26:05.666Z,25.84
2022-10-11T02:27:45.464Z,25.84
2022-10-11T02:29:25.272Z,25.84
2022-10-11T02:31:04.965Z,25.84
2022-10-11T02:32:44.742Z,25.83
2022-10-11T02:34:24.514Z,25.84
2022-10-11T02:36:04.267Z,25.83
2022-10-11T02:37:44.048Z,25.83
2022-10-11T02:39:23.822Z,25.83
2022-10-11T02:41:03.570Z,25.83
2022-10-11T02:42:43.336Z,25.83
2022-10-11T02:44:23.144Z,25.83
2022-10-11T02:46:02.875Z,25.83
2022-10-11T02:47:42.651Z,25.83
2022-10-11T02:49:22.418Z,25.83
2022-10-11T02:51:02.183Z,25.82
2022-10-11T02:52:41.945Z,25.83
2022-10-11T02:54:21.711Z,25.82
2022-10-11T02:56:01.549Z,25.82
2022-10-11T02:57:41.267Z,25.81
2022-10-11T02:59:21.014Z,25.82
2022-10-11T03:01:00.794Z,25.82
2022-10-11T03:02:40.618Z,25.82
2022-10-11T03:04:20.328Z,25.81
2022-10-11T03:06:00.085Z,25.81
2022-10-11T03:07:39.849Z,25.81
2022-10-11T03:09:19.613Z,25.81
2022-10-11T03:10:59.385Z,25.8
2022-10-11T03:12:39.139Z,25.81
2022-10-11T03:14:18.922Z,25.81
2022-10-11T03:15:58.696Z,25.8
2022-10-11T03:17:38.459Z,25.8
2022-10-11T03:19:18.233Z,25.8
2022-10-11T03:20:57.985Z,25.79
2022-10-11T03:22:37.763Z,25.79
2022-10-11T03:24:17.565Z,25.79
2022-10-11T03:25:57.420Z,25.79
2022-10-11T03:27:37.050Z,25.79
2022-10-11T03:29:16.837Z,25.79
2022-10-11T03:30:56.583Z,25.79
2022-10-11T03:32:36.397Z,25.79
2022-10-11T03:34:16.129Z,25.79
2022-10-11T03:35:55.937Z,25.78
2022-10-11T03:37:35.693Z,25.78
2022-10-11T03:39:15.417Z,25.78
2022-10-11T03:40:55.204Z,25.78
2022-10-11T03:42:34.964Z,25.78
2022-10-11T03:44:14.731Z,25.77
2022-10-11T03:45:54.581Z,25.78
2022-10-11T03:47:34.270Z,25.77
2022-10-11T03:49:14.032Z,25.77
2022-10-11T03:50:53.812Z,25.77
2022-10-11T03:52:33.566Z,25.77
2022-10-11T03:54:13.331Z,25.77
2022-10-11T03:55:53.162Z,25.77
2022-10-11T03:57:32.865Z,25.76
2022-10-11T03:59:12.622Z,25.76
2022-10-11T04:00:52.388Z,25.77
2022-10-11T04:02:32.150Z,25.76
2022-10-11T04:04:11.921Z,25.76
2022-10-11T04:05:51.728Z,25.76
2022-10-11T04:07:31.456Z,25.76
2022-10-11T04:09:11.267Z,25.75
2022-10-11T04:10:50.973Z,25.75
2022-10-11T04:12:30.867Z,25.71
2022-10-11T04:14:10.560Z,25.74
2022-10-11T04:15:50.278Z,25.75
2022-10-11T04:17:30.187Z,25.75
2022-10-11T04:19:09.841Z,25.75
2022-10-11T04:20:49.588Z,25.74
2022-10-11T04:22:29.423Z,25.75
2022-10-11T04:24:09.111Z,25.74
2022-10-11T04:25:48.910Z,25.74
2022-10-11T04:27:28.708Z,25.73
2022-10-11T04:29:08.438Z,25.74
2022-10-11T04:32:27.924Z,25.73
2022-10-11T04:34:07.731Z,25.73
2022-10-11T04:35:47.447Z,25.67
2022-10-11T04:37:27.332Z,25.73
2022-10-11T04:39:06.985Z,25.73
2022-10-11T04:40:46.736Z,25.73
2022-10-11T04:42:26.520Z,25.73
2022-10-11T04:44:06.287Z,25.73
2022-10-11T04:45:46.041Z,25.73
2022-10-11T04:47:25.822Z,25.72
2022-10-11T04:49:05.551Z,25.72
2022-10-11T04:50:45.411Z,25.72
2022-10-11T04:54:04.843Z,25.72
2022-10-11T04:55:44.684Z,25.72
2022-10-11T04:57:24.440Z,25.72
2022-10-11T04:59:04.135Z,25.71
2022-10-11T05:00:43.907Z,25.72
2022-10-11T05:02:23.675Z,25.72
2022-10-11T05:04:03.446Z,25.72
2022-10-11T05:05:43.202Z,25.72
2022-10-11T05:07:23.041Z,25.7
2022-10-11T05:10:42.497Z,25.7
2022-10-11T05:12:22.293Z,25.69
2022-10-11T05:14:02.059Z,25.7
2022-10-11T05:15:41.802Z,25.68
2022-10-11T05:17:21.572Z,25.69
2022-10-11T05:19:01.386Z,25.69
2022-10-11T05:20:41.102Z,25.68
2022-10-11T05:24:00.637Z,25.59
2022-10-11T05:25:40.465Z,25.69
2022-10-11T05:27:20.177Z,25.7
2022-10-11T05:28:59.980Z,25.7
2022-10-11T05:30:39.725Z,25.7
2022-10-11T05:32:19.493Z,25.72
2022-10-11T05:33:59.246Z,25.72
2022-10-11T05:35:39.011Z,25.72
2022-10-11T05:37:18.804Z,25.74
2022-10-11T05:38:58.555Z,25.74
2022-10-11T05:40:38.307Z,25.75
2022-10-11T05:42:18.082Z,25.76
2022-10-11T05:43:57.875Z,25.77
2022-10-11T05:45:37.637Z,25.78
2022-10-11T05:47:17.396Z,25.79
2022-10-11T05:48:57.150Z,25.7
2022-10-11T05:50:36.921Z,25.81
2022-10-11T05:52:16.709Z,25.83
2022-10-11T05:53:56.458Z,25.83
2022-10-11T05:55:36.238Z,25.85
2022-10-11T05:57:16.019Z,25.86
2022-10-11T05:58:55.785Z,25.87
2022-10-11T06:00:35.554Z,25.89
2022-10-11T06:02:15.325Z,25.89
2022-10-11T06:03:55.086Z,25.91
2022-10-11T06:05:34.868Z,25.93
2022-10-11T06:07:14.630Z,26.02
2022-10-11T06:08:54.483Z,26.01
2022-10-11T06:10:34.159Z,26
2022-10-11T06:12:13.962Z,26.02
2022-10-11T06:13:53.720Z,26.03
2022-10-11T06:15:33.489Z,26.05
2022-10-11T06:17:13.315Z,26.06
2022-10-11T06:18:53.044Z,26.09
2022-10-11T06:20:32.779Z,26.11
2022-10-11T06:22:12.587Z,26.13
2022-10-11T06:23:52.382Z,26.15
2022-10-11T06:25:32.111Z,26.17
2022-10-11T06:27:11.908Z,26.19
2022-10-11T06:28:51.636Z,26.2
2022-10-11T06:30:31.413Z,26.23
2022-10-11T06:32:11.169Z,26.25
2022-10-11T06:35:30.723Z,26.3
2022-10-11T06:37:10.502Z,26.31
2022-10-11T06:38:50.338Z,26.34
2022-10-11T06:40:30.030Z,26.35
2022-10-11T06:42:09.863Z,26.38
2022-10-11T06:43:49.569Z,26.41
2022-10-11T06:45:29.413Z,26.43
2022-10-11T06:47:09.130Z,26.47
2022-10-11T06:48:49.039Z,26.5
2022-10-11T06:50:28.668Z,26.53
2022-10-11T06:52:08.539Z,26.57
2022-10-11T06:53:48.322Z,26.57
2022-10-11T06:55:28.128Z,26.6
2022-10-11T06:57:07.877Z,26.63
2022-10-11T06:58:47.528Z,26.66
2022-10-11T07:00:27.276Z,26.68
2022-10-11T07:02:07.040Z,26.73
2022-10-11T07:03:46.829Z,26.76
2022-10-11T07:05:26.580Z,26.77
2022-10-11T07:07:06.386Z,26.73
2022-10-11T07:08:46.125Z,26.99
2022-10-11T07:10:25.902Z,26.92
2022-10-11T07:12:05.678Z,26.94
2022-10-11T07:13:45.482Z,26.96
2022-10-11T07:15:25.370Z,26.98
2022-10-11T07:17:05.128Z,27
2022-10-11T07:18:44.840Z,27.01
2022-10-11T07:20:24.525Z,27.04
2022-10-11T07:22:04.417Z,27.05
2022-10-11T07:23:44.229Z,27.07
2022-10-11T07:25:23.975Z,27.09
2022-10-11T07:27:03.602Z,27.09
2022-10-11T07:28:43.492Z,27.12
2022-10-11T07:30:23.133Z,27.13
2022-10-11T07:32:02.981Z,27.14
2022-10-11T07:33:42.857Z,27.17
2022-10-11T07:35:22.448Z,27.19
2022-10-11T07:37:02.322Z,27.19
2022-10-11T07:38:42.138Z,27.22
2022-10-11T07:40:21.872Z,27.23
2022-10-11T07:42:01.685Z,27.25
2022-10-11T07:45:21.214Z,27.26
2022-10-11T07:47:00.833Z,27.29
2022-10-11T07:48:40.680Z,27.31
2022-10-11T07:50:20.505Z,27.34
2022-10-11T07:52:00.251Z,27.33
2022-10-11T07:53:39.985Z,27.34
2022-10-11T07:55:19.802Z,27.36
2022-10-11T07:56:59.619Z,27.36
2022-10-11T07:58:39.401Z,27.3
2022-10-11T08:00:19.131Z,27.39
2022-10-11T08:01:58.882Z,27.4
2022-10-11T08:05:18.462Z,27.41
2022-10-11T08:08:38.005Z,27.57
2022-10-11T08:10:17.760Z,27.55
2022-10-11T08:11:57.554Z,27.5
2022-10-11T08:13:37.227Z,27.49
2022-10-11T08:15:17.011Z,27.49
2022-10-11T08:16:56.718Z,27.5
2022-10-11T08:18:36.573Z,27.5
2022-10-11T08:20:16.253Z,27.52
2022-10-11T08:21:56.015Z,27.53
2022-10-11T08:23:35.917Z,27.53
2022-10-11T08:25:15.703Z,27.57
2022-10-11T08:26:55.467Z,27.88
2022-10-11T08:28:35.233Z,28.52
2022-10-11T08:30:15.019Z,29.61
2022-10-11T08:31:54.646Z,29.34
2022-10-11T08:33:34.410Z,29.34
2022-10-11T08:35:14.323Z,29.31
2022-10-11T08:36:54.102Z,29.32
2022-10-11T08:38:33.866Z,29.29
2022-10-11T08:40:13.636Z,29.28
2022-10-11T08:41:53.416Z,29.27
2022-10-11T08:43:33.160Z,29.27
2022-10-11T08:45:12.823Z,29.25
2022-10-11T08:46:52.694Z,29.25
2022-10-11T08:48:32.348Z,29.28
2022-10-11T08:50:12.113Z,29.25
2022-10-11T08:51:51.896Z,29.25
2022-10-11T08:53:31.658Z,29.23
2022-10-11T08:55:11.560Z,29.28
2022-10-11T08:56:51.191Z,29.24
2022-10-11T08:58:30.963Z,29.25
2022-10-11T09:00:10.742Z,29.25
2022-10-11T09:01:50.507Z,29.28
2022-10-11T09:03:30.277Z,29.25
2022-10-11T09:05:10.066Z,29.23
2022-10-11T09:06:49.814Z,29.25
2022-10-11T09:08:29.591Z,29.24
2022-10-11T09:10:09.355Z,29.26
2022-10-11T09:11:49.133Z,29.27
2022-10-11T09:13:28.895Z,29.26
2022-10-11T09:15:08.668Z,29.25
2022-10-11T09:16:48.444Z,29.13
2022-10-11T09:18:28.212Z,29.25
2022-10-11T09:20:07.981Z,29.23
2022-10-11T09:21:47.786Z,29.24
2022-10-11T09:23:27.519Z,29.21
2022-10-11T09:25:07.302Z,29.22
2022-10-11T09:26:47.076Z,29.23
2022-10-11T09:28:26.951Z,29.24
2022-10-11T09:30:06.619Z,29.22
2022-10-11T09:31:46.378Z,29.23
2022-10-11T09:33:26.179Z,29.21
2022-10-11T09:35:05.909Z,29.2
2022-10-11T09:36:45.694Z,29.24
2022-10-11T09:38:25.488Z,29.24
2022-10-11T09:40:05.222Z,29.2
2022-10-11T09:41:45.009Z,29.22
2022-10-11T09:43:24.769Z,29.17
2022-10-11T09:45:04.543Z,29.2
2022-10-11T09:46:44.296Z,29.21
2022-10-11T09:48:24.109Z,29.24
2022-10-11T09:50:03.844Z,29.21
2022-10-11T09:51:43.634Z,29.19
2022-10-11T09:53:23.390Z,29.2
2022-10-11T09:55:03.157Z,29.22
2022-10-11T09:56:42.932Z,29.21
2022-10-11T09:58:22.720Z,29.2
2022-10-11T10:00:02.539Z,29.19
2022-10-11T10:01:42.241Z,29.2
2022-10-11T10:03:22.020Z,29.19
2022-10-11T10:05:01.884Z,28.97
2022-10-11T10:06:41.582Z,29.19
2022-10-11T10:08:21.328Z,29.29
2022-10-11T10:10:01.119Z,29.19
2022-10-11T10:11:40.854Z,29.19
2022-10-11T10:13:20.636Z,29.24
2022-10-11T10:15:00.418Z,29.16
2022-10-11T10:16:40.246Z,29.17
2022-10-11T10:18:19.954Z,29.18
2022-10-11T10:19:59.724Z,29.18
2022-10-11T10:21:39.484Z,29.17
2022-10-11T10:23:19.274Z,29.18
2022-10-11T10:24:59.058Z,29.09
2022-10-11T10:26:38.818Z,29.17
2022-10-11T10:28:18.576Z,29.18
2022-10-11T10:29:58.397Z,29.38
2022-10-11T10:31:38.120Z,29.16
2022-10-11T10:33:17.945Z,29.18
2022-10-11T10:34:57.701Z,29.08
2022-10-11T10:36:37.415Z,29.18
2022-10-11T10:38:17.170Z,29.07
2022-10-11T10:39:56.966Z,29.16
2022-10-11T10:41:36.727Z,29.15
2022-10-11T10:43:16.511Z,29.01
2022-10-11T10:44:56.273Z,29.19
2022-10-11T10:46:36.056Z,29.11
2022-10-11T10:48:15.806Z,29.12
2022-10-11T10:49:55.696Z,29.18
2022-10-11T10:51:35.346Z,29.18
2022-10-11T10:53:15.137Z,29.14
2022-10-11T10:54:54.902Z,29.15
2022-10-11T10:56:34.662Z,29.14
2022-10-11T10:58:14.451Z,29.17
2022-10-11T10:59:54.221Z,29.13
2022-10-11T11:01:33.981Z,29.16
2022-10-11T11:03:13.740Z,29.24
2022-10-11T11:04:53.581Z,29.16
2022-10-11T11:06:33.295Z,29.13
2022-10-11T11:08:13.075Z,29.18
2022-10-11T11:09:52.818Z,29.17
2022-10-11T11:11:32.595Z,29.16
2022-10-11T11:13:12.379Z,29.1
2022-10-11T11:14:52.201Z,29.02
2022-10-11T11:16:31.930Z,29.33
2022-10-11T11:18:11.719Z,29.13
2022-10-11T11:19:51.470Z,29.12
2022-10-11T11:21:31.233Z,29.32
2022-10-11T11:23:10.987Z,29.14
2022-10-11T11:24:50.754Z,29.13
2022-10-11T11:26:30.565Z,29.03
2022-10-11T11:28:10.312Z,29.11
2022-10-11T11:29:50.085Z,29.14
2022-10-11T11:31:29.841Z,27.77
2022-10-11T11:33:09.606Z,27.64
2022-10-11T11:34:49.387Z,27.53
2022-10-11T11:36:29.141Z,27.46
2022-10-11T11:38:08.957Z,27.38
2022-10-11T11:39:48.688Z,27.32
2022-10-11T11:41:28.460Z,27.26
2022-10-11T11:43:08.217Z,27.25
2022-10-11T11:44:48.006Z,27.3
2022-10-11T11:46:27.812Z,27.32
2022-10-11T11:48:07.536Z,27.3
2022-10-11T11:49:47.359Z,27.31
2022-10-11T11:51:27.092Z,27.31
2022-10-11T11:53:06.906Z,27.19
2022-10-11T11:54:46.617Z,27.29
2022-10-11T11:56:26.385Z,27.31
2022-10-11T11:58:06.169Z,27.3
2022-10-11T11:59:45.931Z,27.29
2022-10-11T12:01:25.701Z,27.29
2022-10-11T12:03:05.477Z,27.31
2022-10-11T12:04:45.235Z,27.32
2022-10-11T12:06:25.016Z,27.31
2022-10-11T12:08:04.861Z,27.32
2022-10-11T12:09:44.554Z,27.31
2022-10-11T12:11:24.319Z,27.31
2022-10-11T12:13:04.098Z,27.3
2022-10-11T12:14:43.882Z,27.3
2022-10-11T12:16:23.667Z,27.31
2022-10-11T12:18:03.407Z,27.3
2022-10-11T12:19:43.170Z,27.3
2022-10-11T12:21:22.949Z,27.32
2022-10-11T12:23:02.735Z,27.32
2022-10-11T12:24:42.488Z,27.32
2022-10-11T12:26:22.255Z,27.33
2022-10-11T12:28:02.022Z,27.33
2022-10-11T12:29:41.794Z,27.33
2022-10-11T12:31:21.594Z,27.33
2022-10-11T12:33:01.368Z,27.31
2022-10-11T12:34:41.210Z,27.3
2022-10-11T12:36:20.877Z,27.3
2022-10-11T12:38:00.652Z,27.29
2022-10-11T12:39:40.432Z,27.29
2022-10-11T12:41:20.273Z,27.3
2022-10-11T12:42:59.959Z,27.31
2022-10-11T12:44:39.739Z,27.29
2022-10-11T12:47:59.275Z,27.3
2022-10-11T12:49:39.038Z,27.3
2022-10-11T12:51:18.865Z,27.3
2022-10-11T12:52:58.585Z,27.31
2022-10-11T12:54:38.358Z,27.3
2022-10-11T12:56:18.134Z,27.31
2022-10-11T12:57:57.969Z,27.3
2022-10-11T12:59:37.664Z,27.31
2022-10-11T13:01:17.428Z,27.3
2022-10-11T13:02:57.194Z,27.3
2022-10-11T13:04:37.003Z,27.29
2022-10-11T13:06:16.730Z,27.29
2022-10-11T13:07:56.520Z,27.29
2022-10-11T13:09:36.294Z,27.28
2022-10-11T13:11:16.060Z,27.2
2022-10-11T13:12:55.837Z,27.3
2022-10-11T13:14:35.603Z,27.29
2022-10-11T13:16:15.381Z,27.28
2022-10-11T13:17:55.132Z,27.28
2022-10-11T13:19:34.907Z,27.28
2022-10-11T13:21:14.744Z,27.3
2022-10-11T13:22:54.561Z,27.3
2022-10-11T13:24:34.208Z,27.32
2022-10-11T13:26:13.999Z,27.31
2022-10-11T13:27:53.748Z,27.3
2022-10-11T13:29:33.530Z,27.3
2022-10-11T13:31:13.294Z,27.3
2022-10-11T13:32:53.066Z,27.3
2022-10-11T13:36:12.608Z,27.29
2022-10-11T13:37:52.377Z,27.29
2022-10-11T13:39:32.160Z,27.28
2022-10-11T13:41:11.919Z,27.27
2022-10-11T13:42:51.686Z,27.26
2022-10-11T13:44:31.467Z,27.27
2022-10-11T13:46:11.288Z,27.26
2022-10-11T13:47:51.002Z,27.26
2022-10-11T13:49:30.778Z,27.26
2022-10-11T13:51:10.551Z,27.27
2022-10-11T13:52:50.321Z,27.27
2022-10-11T13:54:30.079Z,27.27
2022-10-11T13:56:09.863Z,27.28
2022-10-11T13:57:49.634Z,27.27
2022-10-11T13:59:29.399Z,27.26
2022-10-11T14:01:09.159Z,27.27
2022-10-11T14:02:49.046Z,27.21
2022-10-11T14:04:28.708Z,27.28
2022-10-11T14:06:08.484Z,27.28
2022-10-11T14:07:48.243Z,27.29
2022-10-11T14:09:28.016Z,27.28
2022-10-11T14:11:07.786Z,27.3
2022-10-11T14:12:47.571Z,27.31
2022-10-11T14:14:27.332Z,27.31
2022-10-11T14:16:07.095Z,27.31
2022-10-11T14:17:46.861Z,27.32
2022-10-11T14:19:26.664Z,27.3
2022-10-11T14:21:06.518Z,27.31
2022-10-11T14:22:46.175Z,27.31
2022-10-11T14:24:25.959Z,27.31
2022-10-11T14:26:05.725Z,27.29
2022-10-11T14:27:45.486Z,27.3
2022-10-11T14:29:25.271Z,27.28
2022-10-11T14:31:05.040Z,27.31
2022-10-11T14:32:44.814Z,27.3
2022-10-11T14:34:24.567Z,27.3
2022-10-11T14:36:04.360Z,27.28
2022-10-11T14:37:44.173Z,27.3
2022-10-11T14:39:23.887Z,27.3
2022-10-11T14:41:03.673Z,27.29
2022-10-11T14:42:43.436Z,27.27
2022-10-11T14:44:23.205Z,27.27
2022-10-11T14:46:02.958Z,27.28
2022-10-11T14:47:42.733Z,27.27
2022-10-11T14:49:22.500Z,27.3
2022-10-11T14:51:02.321Z,27.28
2022-10-11T14:52:42.087Z,27.27
2022-10-11T14:54:21.819Z,27.26
2022-10-11T14:57:41.369Z,27.27
2022-10-11T14:59:21.145Z,27.26
2022-10-11T15:01:00.909Z,27.25
2022-10-11T15:02:40.676Z,27.27
2022-10-11T15:04:20.456Z,27.27
2022-10-11T15:06:00.266Z,27.28
2022-10-11T15:07:39.985Z,27.29
2022-10-11T15:09:19.761Z,27.31
2022-10-11T15:10:59.524Z,27.31
2022-10-11T15:12:39.288Z,27.3
2022-10-11T15:14:19.057Z,27.3
2022-10-11T15:15:58.953Z,27.3
2022-10-11T15:17:38.608Z,27.31
2022-10-11T15:19:18.383Z,27.3
2022-10-11T15:20:58.147Z,27.25
2022-10-11T15:22:37.922Z,27.3
2022-10-11T15:24:17.685Z,27.31
2022-10-11T15:25:57.585Z,27.3
2022-10-11T15:27:37.212Z,27.3
2022-10-11T15:29:16.997Z,27.3
2022-10-11T15:30:56.806Z,27.28
2022-10-11T15:32:36.541Z,27.3
2022-10-11T15:34:16.330Z,27.3
2022-10-11T15:35:56.179Z,27.3
2022-10-11T15:37:35.839Z,27.29
2022-10-11T15:39:15.630Z,27.29
2022-10-11T15:40:55.387Z,27.29
2022-10-11T15:42:35.168Z,27.29
2022-10-11T15:44:14.973Z,27.28
2022-10-11T15:45:54.780Z,27.27
2022-10-11T15:47:34.511Z,27.27
2022-10-11T15:50:54.032Z,27.26
2022-10-11T15:52:33.858Z,27.26
2022-10-11T15:54:13.560Z,27.25
2022-10-11T15:55:53.394Z,27.25
2022-10-11T15:57:33.099Z,27.25
2022-10-11T15:59:12.869Z,27.27
2022-10-11T16:00:52.675Z,27.26
2022-10-11T16:02:32.398Z,27.27
2022-10-11T16:04:12.195Z,27.26
2022-10-11T16:05:51.980Z,27.25
2022-10-11T16:07:31.714Z,27.2
2022-10-11T16:09:11.488Z,27.14
2022-10-11T16:10:51.258Z,27.08
2022-10-11T16:12:31.025Z,27.04
2022-10-11T16:14:10.825Z,27.02
2022-10-11T16:15:50.565Z,26.97
2022-10-11T16:17:30.426Z,26.93
2022-10-11T16:19:10.097Z,26.9
2022-10-11T16:20:49.874Z,26.87
2022-10-11T16:22:29.649Z,26.83
2022-10-11T16:24:09.463Z,26.81
2022-10-11T16:25:49.208Z,26.78
2022-10-11T16:27:28.942Z,26.75
2022-10-11T16:29:08.721Z,26.73
2022-10-11T16:30:48.479Z,26.69
2022-10-11T16:32:28.255Z,26.68
2022-10-11T16:34:08.031Z,26.64
2022-10-11T16:37:27.574Z,26.59
2022-10-11T16:39:07.322Z,26.57
2022-10-11T16:40:47.059Z,26.55
2022-10-11T16:42:26.867Z,26.54
2022-10-11T16:44:06.608Z,26.51
2022-10-11T16:45:46.368Z,26.5
2022-10-11T16:47:26.150Z,26.49
2022-10-11T16:49:05.919Z,26.48
2022-10-11T16:50:45.682Z,26.46
2022-10-11T16:52:25.481Z,26.46
2022-10-11T16:54:05.243Z,26.44
2022-10-11T16:55:44.988Z,26.44
2022-10-11T16:57:24.763Z,26.42
2022-10-11T16:59:04.517Z,26.42
2022-10-11T17:00:44.289Z,26.4
2022-10-11T17:02:24.092Z,26.38
2022-10-11T17:04:03.812Z,26.38
2022-10-11T17:05:43.581Z,26.37
2022-10-11T17:07:23.363Z,26.37
2022-10-11T17:09:03.183Z,26.36
2022-10-11T17:10:42.896Z,26.35
2022-10-11T17:12:22.655Z,26.34
2022-10-11T17:14:02.413Z,26.34
2022-10-11T17:15:42.198Z,26.33
2022-10-11T17:17:21.975Z,26.33
2022-10-11T17:19:01.743Z,26.32
2022-10-11T17:20:41.496Z,26.31
2022-10-11T17:22:21.268Z,26.3
2022-10-11T17:24:01.020Z,26.3
2022-10-11T17:25:40.789Z,26.29
2022-10-11T17:27:20.560Z,26.28
2022-10-11T17:29:00.337Z,26.28
2022-10-11T17:30:40.098Z,26.28
2022-10-11T17:32:19.934Z,26.27
2022-10-11T17:33:59.684Z,26.26
2022-10-11T17:35:39.427Z,26.25
2022-10-11T17:37:19.189Z,26.25
2022-10-11T17:38:59.018Z,26.25
2022-10-11T17:40:38.704Z,26.24
2022-10-11T17:42:18.504Z,26.24
2022-10-11T17:43:58.263Z,26.23
2022-10-11T17:45:38.014Z,26.23
2022-10-11T17:47:17.809Z,26.22
2022-10-11T17:48:57.578Z,26.22
2022-10-11T17:50:37.312Z,26.22
2022-10-11T17:52:17.106Z,26.19
2022-10-11T17:53:56.834Z,26.22
2022-10-11T17:55:36.600Z,26.21
2022-10-11T17:57:16.383Z,26.2
2022-10-11T17:58:56.143Z,26.2
2022-10-11T18:00:35.908Z,26.2
2022-10-11T18:02:15.713Z,26.2
2022-10-11T18:03:55.447Z,26.19
2022-10-11T18:05:35.265Z,26.19
2022-10-11T18:07:14.971Z,26.19
2022-10-11T18:08:54.757Z,26.19
2022-10-11T18:10:34.510Z,26.18
2022-10-11T18:12:14.289Z,26.19
2022-10-11T18:13:54.044Z,26.18
2022-10-11T18:15:33.821Z,26.18
2022-10-11T18:17:13.577Z,26.1
2022-10-11T18:18:53.359Z,26.17
2022-10-11T18:20:33.121Z,26.17
2022-10-11T18:22:12.888Z,26.17
2022-10-11T18:23:52.683Z,26.17
2022-10-11T18:25:32.428Z,26.17
2022-10-11T18:27:12.217Z,26.16
2022-10-11T18:28:51.956Z,26.16
2022-10-11T18:30:31.722Z,26.16
2022-10-11T18:32:11.496Z,26.15
2022-10-11T18:33:51.275Z,26.15
2022-10-11T18:35:31.026Z,26.15
2022-10-11T18:37:10.792Z,26.15
2022-10-11T18:38:50.556Z,26.15
2022-10-11T18:40:30.320Z,26.15
2022-10-11T18:42:10.158Z,26.08
2022-10-11T18:43:49.861Z,26.14
2022-10-11T18:47:09.417Z,26.14
2022-10-11T18:48:49.182Z,26.14
2022-10-11T18:50:28.964Z,26.14
2022-10-11T18:52:08.775Z,26.14
2022-10-11T18:53:48.515Z,26.13
2022-10-11T18:55:28.255Z,26.13
2022-10-11T18:57:07.997Z,26.13
2022-10-11T18:58:47.767Z,26.13
2022-10-11T19:00:27.547Z,26.13
2022-10-11T19:02:07.328Z,26.12
2022-10-11T19:03:47.083Z,26.12
2022-10-11T19:05:26.861Z,26.12
2022-10-11T19:07:06.606Z,26.02
2022-10-11T19:08:46.386Z,26.12
2022-10-11T19:10:26.136Z,26.12
2022-10-11T19:12:05.973Z,26.12
2022-10-11T19:13:45.700Z,26.12
2022-10-11T19:15:25.446Z,26.12
2022-10-11T19:17:05.220Z,26.11
2022-10-11T19:18:44.976Z,26.12
2022-10-11T19:20:24.768Z,26.11
2022-10-11T19:22:04.519Z,26.11
2022-10-11T19:23:44.279Z,26.11
2022-10-11T19:25:24.048Z,26.11
2022-10-11T19:27:03.809Z,26.11
2022-10-11T19:30:23.350Z,26.1
2022-10-11T19:32:03.188Z,26.02
2022-10-11T19:33:42.877Z,26.1
2022-10-11T19:35:22.686Z,26.1
2022-10-11T19:37:02.430Z,26.1
2022-10-11T19:38:42.188Z,26.1
2022-10-11T19:40:21.948Z,26.1
2022-10-11T19:42:01.715Z,26.09
2022-10-11T19:43:41.491Z,26.1
2022-10-11T19:45:21.260Z,26.09
2022-10-11T19:47:01.014Z,26.09
2022-10-11T19:50:20.556Z,26.09
2022-10-11T19:52:00.335Z,26.09
2022-10-11T19:53:40.164Z,26.09
2022-10-11T19:55:19.868Z,26.08
2022-10-11T19:56:59.632Z,26.06
2022-10-11T19:58:39.401Z,26.09
2022-10-11T20:00:19.182Z,26.08
2022-10-11T20:01:58.947Z,26.08
2022-10-11T20:03:38.695Z,26.08
2022-10-11T20:05:18.480Z,26.08
2022-10-11T20:06:58.280Z,26.08
2022-10-11T20:08:38.094Z,26.07
2022-10-11T20:10:17.758Z,26.08
2022-10-11T20:11:57.615Z,26.08
2022-10-11T20:13:37.429Z,26.07
2022-10-11T20:15:17.224Z,26.07
2022-10-11T20:16:56.935Z,26.07
2022-10-11T20:18:36.759Z,26.07
2022-10-11T20:20:16.516Z,26.07
2022-10-11T20:21:56.297Z,26.06
2022-10-11T20:23:36.056Z,26.07
2022-10-11T20:25:15.686Z,26.07
2022-10-11T20:26:55.535Z,26.07
2022-10-11T20:28:35.323Z,26.06
2022-10-11T20:30:14.979Z,26.06
2022-10-11T20:31:54.775Z,26.06
2022-10-11T20:33:34.573Z,26.06
2022-10-11T20:35:14.284Z,26.06
2022-10-11T20:36:54.080Z,26.06
2022-10-11T20:38:33.823Z,26.06
2022-10-11T20:40:13.637Z,26.06
2022-10-11T20:41:53.345Z,26.05
2022-10-11T20:43:33.126Z,26.05
2022-10-11T20:45:12.940Z,26.05
2022-10-11T20:46:52.678Z,26.05
2022-10-11T20:48:32.436Z,26.05
2022-10-11T20:50:12.219Z,26.05
2022-10-11T20:51:52.053Z,26.05
2022-10-11T20:53:31.713Z,26.05
2022-10-11T20:55:11.488Z,26.05
2022-10-11T20:56:51.280Z,26.05
2022-10-11T20:58:31.042Z,26.05
2022-10-11T21:00:10.874Z,26.04
2022-10-11T21:01:50.552Z,26.04
2022-10-11T21:03:30.413Z,26.04
2022-10-11T21:05:10.084Z,26.04
2022-10-11T21:06:49.859Z,26.04
2022-10-11T21:08:29.736Z,26.04
2022-10-11T21:10:09.470Z,26.03
2022-10-11T21:13:28.993Z,26.04
2022-10-11T21:15:08.744Z,26.04
2022-10-11T21:16:48.550Z,26.03
2022-10-11T21:18:28.272Z,26.03
2022-10-11T21:20:08.061Z,26.03
2022-10-11T21:21:47.833Z,26.03
2022-10-11T21:23:27.523Z,26.03
2022-10-11T21:25:07.319Z,26.03
2022-10-11T21:26:47.070Z,26.02
2022-10-11T21:28:26.883Z,26.03
2022-10-11T21:30:06.664Z,26.02
2022-10-11T21:31:46.366Z,26.02
2022-10-11T21:33:26.144Z,26.02
2022-10-11T21:35:05.951Z,26.02
2022-10-11T21:36:45.726Z,26.02
2022-10-11T21:38:25.459Z,26.02
2022-10-11T21:40:05.213Z,26.02
2022-10-11T21:41:45.018Z,26.02
2022-10-11T21:43:24.744Z,26.02
2022-10-11T21:45:04.526Z,26.01
2022-10-11T21:46:44.274Z,26.02
2022-10-11T21:48:24.053Z,26.02
2022-10-11T21:50:03.838Z,26.01
2022-10-11T21:51:43.657Z,26.01
2022-10-11T21:53:23.410Z,26.01
2022-10-11T21:55:03.166Z,26.01
2022-10-11T21:56:42.908Z,26.01
2022-10-11T21:58:22.732Z,26.01
2022-10-11T22:00:02.416Z,26
2022-10-11T22:01:42.221Z,26.01
2022-10-11T22:03:21.984Z,26.01